createdAt,value
2018-06-22T00:00:08.008Z,71.46
2018-06-22T00:01:07.958Z,71.37
2018-06-22T00:02:07.894Z,72.13
2018-06-22T00:03:07.839Z,72.03
2018-06-22T00:04:07.780Z,72.38
2018-06-22T00:05:07.723Z,72.86
2018-06-22T00:06:07.666Z,73.43
2018-06-22T00:07:07.610Z,73.81
2018-06-22T00:08:07.556Z,73.81
2018-06-22T00:09:07.497Z,74.48
2018-06-22T00:10:07.441Z,74.96
2018-06-22T00:11:07.384Z,74.96
2018-06-22T00:12:07.327Z,74.48
2018-06-22T00:13:07.270Z,75.62
2018-06-22T00:14:07.216Z,74.57
2018-06-22T00:15:07.156Z,75.24
2018-06-22T00:16:07.100Z,75.15
2018-06-22T00:17:07.042Z,75.34
2018-06-22T00:18:06.987Z,74.48
2018-06-22T00:19:06.930Z,74.48
2018-06-22T00:20:06.871Z,74.77
2018-06-22T00:21:06.815Z,74.67
2018-06-22T00:22:06.757Z,74.86
2018-06-22T00:23:06.699Z,74.82
2018-06-22T00:24:06.642Z,75.96
2018-06-22T00:25:06.584Z,76.16
2018-06-22T00:26:06.527Z,76.35
2018-06-22T00:27:06.476Z,75.78
2018-06-22T00:28:06.414Z,76.64
2018-06-22T00:29:06.357Z,76.16
2018-06-22T00:30:06.303Z,75.68
2018-06-22T00:31:06.243Z,75.87
2018-06-22T00:32:06.184Z,75.59
2018-06-22T00:33:06.127Z,76.16
2018-06-22T00:34:06.072Z,76.06
2018-06-22T00:35:06.013Z,75.78
2018-06-22T00:36:05.956Z,75.78
2018-06-22T00:37:05.899Z,75.11
2018-06-22T00:38:05.843Z,76.25
2018-06-22T00:39:05.787Z,75.96
2018-06-22T00:40:05.725Z,76.73
2018-06-22T00:41:05.672Z,76.73
2018-06-22T00:42:05.612Z,77.30
2018-06-22T00:43:05.555Z,77.20
2018-06-22T00:44:05.496Z,77.11
2018-06-22T00:45:05.439Z,77.59
2018-06-22T00:46:05.381Z,78.16
2018-06-22T00:47:05.323Z,78.06
2018-06-22T00:48:05.267Z,77.78
2018-06-22T00:49:05.210Z,76.35
2018-06-22T00:50:05.156Z,76.92
2018-06-22T00:51:05.096Z,76.82
2018-06-22T00:52:05.037Z,77.49
2018-06-22T00:53:04.979Z,77.20
2018-06-22T00:54:04.922Z,77.30
2018-06-22T00:55:04.864Z,77.59
2018-06-22T00:56:04.807Z,78.64
2018-06-22T00:57:04.750Z,78.12
2018-06-22T00:58:04.691Z,78.92
2018-06-22T00:59:04.633Z,78.41
2018-06-22T01:00:04.577Z,78.31
2018-06-22T01:01:04.519Z,78.78
2018-06-22T01:02:04.464Z,78.98
2018-06-22T01:03:04.403Z,80.50
2018-06-22T01:04:04.346Z,79.93
2018-06-22T01:05:04.288Z,78.88
2018-06-22T01:06:04.236Z,79.17
2018-06-22T01:07:04.172Z,78.98
2018-06-22T01:08:04.118Z,79.27
2018-06-22T01:09:04.060Z,78.69
2018-06-22T01:10:04.000Z,78.88
2018-06-22T01:11:03.940Z,78.88
2018-06-22T01:12:03.883Z,78.88
2018-06-22T01:13:03.826Z,80.79
2018-06-22T01:14:03.772Z,80.02
2018-06-22T01:15:03.710Z,80.02
2018-06-22T01:16:03.651Z,79.55
2018-06-22T01:17:03.596Z,80.69
2018-06-22T01:18:03.537Z,80.41
2018-06-22T01:19:03.478Z,80.31
2018-06-22T01:20:03.429Z,80.79
2018-06-22T01:21:03.363Z,80.60
2018-06-22T01:22:03.305Z,80.50
2018-06-22T01:23:03.245Z,80.50
2018-06-22T01:24:03.194Z,80.60
2018-06-22T01:25:03.129Z,80.60
2018-06-22T01:26:03.073Z,81.36
2018-06-22T01:27:03.014Z,81.55
2018-06-22T01:28:02.957Z,80.50
2018-06-22T01:29:02.900Z,80.12
2018-06-22T01:30:02.842Z,80.41
2018-06-22T01:31:02.780Z,80.41
2018-06-22T01:32:02.724Z,82.69
2018-06-22T01:33:02.667Z,82.60
2018-06-22T01:34:02.608Z,81.36
2018-06-22T01:35:02.548Z,80.60
2018-06-22T01:36:02.492Z,81.55
2018-06-22T01:37:02.438Z,81.55
2018-06-22T01:38:02.376Z,80.50
2018-06-22T01:39:02.317Z,80.02
2018-06-22T01:40:02.261Z,79.74
2018-06-22T01:41:02.200Z,79.36
2018-06-22T01:42:02.143Z,81.55
2018-06-22T01:43:02.085Z,80.60
2018-06-22T01:44:02.028Z,79.46
2018-06-22T01:45:01.970Z,80.02
2018-06-22T01:46:01.914Z,80.12
2018-06-22T01:47:01.853Z,79.74
2018-06-22T01:48:01.793Z,80.02
2018-06-22T01:49:01.736Z,80.22
2018-06-22T01:50:01.679Z,80.50
2018-06-22T01:51:01.623Z,81.36
2018-06-22T01:52:01.566Z,81.46
2018-06-22T01:53:01.505Z,81.65
2018-06-22T01:54:01.444Z,80.79
2018-06-22T01:55:01.387Z,80.22
2018-06-22T01:56:01.331Z,80.31
2018-06-22T01:57:01.270Z,80.79
2018-06-22T01:58:01.211Z,80.79
2018-06-22T01:59:01.154Z,80.60
2018-06-22T02:00:01.096Z,81.36
2018-06-22T02:01:01.039Z,81.46
2018-06-22T02:02:00.982Z,81.26
2018-06-22T02:03:00.920Z,81.26
2018-06-22T02:04:00.862Z,81.36
2018-06-22T02:05:00.807Z,81.46
2018-06-22T02:06:00.750Z,81.65
2018-06-22T02:07:00.688Z,81.46
2018-06-22T02:08:00.631Z,80.79
2018-06-22T02:09:00.571Z,81.17
2018-06-22T02:10:00.514Z,81.55
2018-06-22T02:11:00.454Z,82.31
2018-06-22T02:12:00.398Z,82.12
2018-06-22T02:13:00.341Z,81.93
2018-06-22T02:14:00.282Z,81.84
2018-06-22T02:15:00.225Z,82.60
2018-06-22T02:16:00.164Z,82.60
2018-06-22T02:17:00.107Z,82.84
2018-06-22T02:18:00.049Z,82.93
2018-06-22T02:18:59.991Z,83.70
2018-06-22T02:19:59.936Z,84.36
2018-06-22T02:20:59.874Z,84.61
2018-06-22T02:21:59.818Z,84.80
2018-06-22T02:22:59.755Z,85.47
2018-06-22T02:23:59.699Z,86.80
2018-06-22T02:24:59.640Z,86.66
2018-06-22T02:25:59.625Z,86.85
2018-06-22T02:26:59.522Z,87.61
2018-06-22T02:27:59.464Z,87.71
2018-06-22T02:28:59.407Z,87.90
2018-06-22T02:29:59.346Z,88.28
2018-06-22T02:30:59.287Z,88.18
2018-06-22T02:31:59.229Z,88.66
2018-06-22T02:32:59.171Z,88.18
2018-06-22T02:33:59.113Z,88.13
2018-06-22T02:34:59.051Z,88.46
2018-06-22T02:35:58.997Z,88.51
2018-06-22T02:36:58.933Z,88.79
2018-06-22T02:37:58.875Z,88.42
2018-06-22T02:38:58.816Z,88.79
2018-06-22T02:39:58.757Z,88.13
2018-06-22T02:40:58.704Z,88.32
2018-06-22T02:41:58.641Z,87.75
2018-06-22T02:42:58.586Z,88.42
2018-06-22T02:43:58.522Z,88.04
2018-06-22T02:44:58.463Z,88.23
2018-06-22T02:45:58.406Z,88.79
2018-06-22T02:46:58.346Z,88.60
2018-06-22T02:47:58.290Z,88.89
2018-06-22T02:48:58.235Z,88.70
2018-06-22T02:49:58.176Z,88.60
2018-06-22T02:50:58.115Z,88.79
2018-06-22T02:51:58.052Z,88.89
2018-06-22T02:52:57.995Z,88.70
2018-06-22T02:53:57.935Z,88.04
2018-06-22T02:54:57.873Z,87.65
2018-06-22T02:55:57.817Z,87.27
2018-06-22T02:56:57.757Z,87.75
2018-06-22T02:57:57.703Z,88.13
2018-06-22T02:58:57.640Z,88.13
2018-06-22T02:59:57.710Z,88.04
2018-06-22T03:00:57.521Z,88.46
2018-06-22T03:01:57.464Z,88.28
2018-06-22T03:02:57.404Z,88.85
2018-06-22T03:03:57.347Z,89.32
2018-06-22T03:04:57.288Z,90.18
2018-06-22T03:05:57.228Z,89.99
2018-06-22T03:06:57.166Z,90.56
2018-06-22T03:07:57.108Z,90.56
2018-06-22T03:08:57.049Z,90.18
2018-06-22T03:09:56.991Z,90.08
2018-06-22T03:10:56.931Z,90.37
2018-06-22T03:11:56.871Z,90.18
2018-06-22T03:12:56.813Z,90.18
2018-06-22T03:13:56.754Z,90.94
2018-06-22T03:14:56.693Z,91.03
2018-06-22T03:15:56.634Z,90.94
2018-06-22T03:16:56.576Z,91.32
2018-06-22T03:17:56.520Z,91.99
2018-06-22T03:18:56.459Z,91.99
2018-06-22T03:19:56.396Z,90.94
2018-06-22T03:20:56.340Z,91.89
2018-06-22T03:21:56.280Z,91.94
2018-06-22T03:22:56.219Z,91.94
2018-06-22T03:23:56.160Z,91.75
2018-06-22T03:24:56.099Z,92.51
2018-06-22T03:25:56.063Z,92.61
2018-06-22T03:26:55.980Z,92.89
2018-06-22T03:27:55.927Z,92.80
2018-06-22T03:28:55.862Z,92.99
2018-06-22T03:29:55.803Z,93.37
2018-06-22T03:30:55.743Z,93.75
2018-06-22T03:31:55.736Z,93.75
2018-06-22T03:32:55.626Z,93.46
2018-06-22T03:33:55.566Z,94.13
2018-06-22T03:34:55.505Z,94.13
2018-06-22T03:35:55.447Z,94.70
2018-06-22T03:36:55.387Z,94.60
2018-06-22T03:37:55.326Z,95.56
2018-06-22T03:38:55.265Z,95.08
2018-06-22T03:39:55.207Z,95.17
2018-06-22T03:40:55.147Z,94.60
2018-06-22T03:41:55.115Z,95.08
2018-06-22T03:42:55.027Z,94.79
2018-06-22T03:43:54.968Z,95.08
2018-06-22T03:44:54.907Z,94.98
2018-06-22T03:45:54.848Z,94.98
2018-06-22T03:46:54.787Z,95.32
2018-06-22T03:47:54.727Z,95.56
2018-06-22T03:48:54.668Z,95.75
2018-06-22T03:49:54.611Z,95.84
2018-06-22T03:50:54.547Z,95.60
2018-06-22T03:51:54.488Z,95.60
2018-06-22T03:52:54.428Z,96.17
2018-06-22T03:53:54.370Z,95.89
2018-06-22T03:54:54.308Z,96.26
2018-06-22T03:55:54.248Z,96.45
2018-06-22T03:56:54.279Z,96.74
2018-06-22T03:57:54.130Z,97.17
2018-06-22T03:58:54.067Z,97.50
2018-06-22T03:59:54.009Z,98.03
2018-06-22T04:00:53.948Z,96.89
2018-06-22T04:01:53.890Z,97.17
2018-06-22T04:02:53.827Z,95.75
2018-06-22T04:03:53.769Z,96.41
2018-06-22T04:04:53.719Z,95.84
2018-06-22T04:05:53.651Z,96.03
2018-06-22T04:06:53.589Z,96.31
2018-06-22T04:07:53.528Z,96.12
2018-06-22T04:08:53.488Z,96.12
2018-06-22T04:09:53.408Z,96.03
2018-06-22T04:10:53.347Z,96.22
2018-06-22T04:11:53.288Z,95.65
2018-06-22T04:12:53.229Z,95.94
2018-06-22T04:13:53.170Z,95.84
2018-06-22T04:14:53.108Z,96.03
2018-06-22T04:15:53.049Z,96.03
2018-06-22T04:16:52.990Z,96.03
2018-06-22T04:17:52.928Z,95.75
2018-06-22T04:18:52.868Z,95.84
2018-06-22T04:19:52.807Z,97.17
2018-06-22T04:20:52.748Z,96.41
2018-06-22T04:21:52.688Z,96.50
2018-06-22T04:22:52.630Z,96.89
2018-06-22T04:23:52.568Z,96.89
2018-06-22T04:24:52.508Z,97.08
2018-06-22T04:25:52.448Z,97.45
2018-06-22T04:26:52.389Z,97.27
2018-06-22T04:27:52.328Z,97.64
2018-06-22T04:28:52.269Z,97.83
2018-06-22T04:29:52.209Z,97.64
2018-06-22T04:30:52.147Z,97.83
2018-06-22T04:31:52.091Z,97.69
2018-06-22T04:32:52.029Z,97.98
2018-06-22T04:33:51.968Z,97.50
2018-06-22T04:34:51.910Z,97.41
2018-06-22T04:35:51.850Z,97.88
2018-06-22T04:36:51.788Z,97.22
2018-06-22T04:37:51.730Z,97.41
2018-06-22T04:38:51.669Z,97.88
2018-06-22T04:39:51.608Z,97.41
2018-06-22T04:40:51.550Z,97.41
2018-06-22T04:41:51.490Z,97.31
2018-06-22T04:42:51.429Z,96.12
2018-06-22T04:43:51.369Z,95.36
2018-06-22T04:44:51.310Z,95.17
2018-06-22T04:45:51.257Z,93.22
2018-06-22T04:46:51.192Z,92.18
2018-06-22T04:47:51.134Z,90.94
2018-06-22T04:48:51.073Z,90.17
2018-06-22T04:49:51.013Z,90.60
2018-06-22T04:50:50.953Z,90.79
2018-06-22T04:51:50.896Z,90.79
2018-06-22T04:52:50.837Z,89.94
2018-06-22T04:53:50.778Z,89.55
2018-06-22T04:54:50.716Z,89.07
2018-06-22T04:55:50.657Z,90.50
2018-06-22T04:56:50.600Z,89.75
2018-06-22T04:57:50.538Z,89.89
2018-06-22T04:58:50.480Z,88.93
2018-06-22T04:59:50.421Z,88.17
2018-06-22T05:00:50.365Z,87.88
2018-06-22T05:01:50.303Z,87.31
2018-06-22T05:02:50.245Z,85.88
2018-06-22T05:03:50.187Z,86.26
2018-06-22T05:04:50.127Z,87.98
2018-06-22T05:05:50.073Z,87.50
2018-06-22T05:06:50.011Z,87.12
2018-06-22T05:07:49.952Z,86.16
2018-06-22T05:08:49.892Z,85.97
2018-06-22T05:09:49.835Z,85.83
2018-06-22T05:10:49.834Z,85.60
2018-06-22T05:11:49.719Z,86.55
2018-06-22T05:12:49.658Z,88.50
2018-06-22T05:13:49.601Z,88.40
2018-06-22T05:14:49.542Z,86.21
2018-06-22T05:15:49.563Z,86.11
2018-06-22T05:16:49.425Z,86.11
2018-06-22T05:17:49.375Z,86.11
2018-06-22T05:18:49.311Z,86.69
2018-06-22T05:19:49.253Z,86.30
2018-06-22T05:20:49.216Z,86.21
2018-06-22T05:21:49.138Z,86.40
2018-06-22T05:22:49.079Z,85.54
2018-06-22T05:23:49.021Z,84.97
2018-06-22T05:24:49.006Z,85.64
2018-06-22T05:25:48.904Z,86.21
2018-06-22T05:26:48.846Z,86.30
2018-06-22T05:27:48.788Z,85.54
2018-06-22T05:28:48.731Z,85.64
2018-06-22T05:29:48.672Z,87.07
2018-06-22T05:30:48.615Z,86.88
2018-06-22T05:31:48.558Z,86.11
2018-06-22T05:32:48.501Z,85.83
2018-06-22T05:33:48.447Z,87.54
2018-06-22T05:34:48.381Z,86.40
2018-06-22T05:35:48.330Z,84.16
2018-06-22T05:36:48.268Z,84.92
2018-06-22T05:37:48.210Z,84.36
2018-06-22T05:38:48.155Z,84.30
2018-06-22T05:39:48.095Z,83.78
2018-06-22T05:40:48.196Z,83.25
2018-06-22T05:41:48.030Z,84.01
2018-06-22T05:42:48.009Z,85.64
2018-06-22T05:43:48.029Z,84.11
2018-06-22T05:44:47.845Z,83.06
2018-06-22T05:45:47.883Z,84.20
2018-06-22T05:46:47.724Z,85.54
2018-06-22T05:47:47.641Z,83.54
2018-06-22T05:48:47.672Z,83.83
2018-06-22T05:49:47.520Z,83.25
2018-06-22T05:50:47.586Z,82.78
2018-06-22T05:51:47.399Z,82.20
2018-06-22T05:52:47.339Z,81.35
2018-06-22T05:53:47.296Z,81.35
2018-06-22T05:54:47.224Z,82.59
2018-06-22T05:55:47.165Z,81.54
2018-06-22T05:56:47.166Z,79.35
2018-06-22T05:57:47.049Z,80.49
2018-06-22T05:58:46.992Z,79.82
2018-06-22T05:59:46.935Z,79.15
2018-06-22T06:00:46.877Z,78.96
2018-06-22T06:01:46.821Z,79.06
2018-06-22T06:02:46.761Z,79.82
2018-06-22T06:03:46.702Z,79.96
2018-06-22T06:04:46.645Z,80.33
2018-06-22T06:05:46.586Z,79.57
2018-06-22T06:06:46.531Z,79.96
2018-06-22T06:07:46.469Z,78.62
2018-06-22T06:08:46.415Z,78.62
2018-06-22T06:09:46.357Z,78.43
2018-06-22T06:10:46.295Z,78.43
2018-06-22T06:11:46.239Z,78.62
2018-06-22T06:12:46.181Z,78.10
2018-06-22T06:13:46.126Z,78.33
2018-06-22T06:14:46.068Z,79.25
2018-06-22T06:15:46.008Z,79.48
2018-06-22T06:16:45.949Z,80.53
2018-06-22T06:17:45.896Z,79.86
2018-06-22T06:18:45.836Z,79.28
2018-06-22T06:19:45.776Z,80.15
2018-06-22T06:20:45.718Z,78.62
2018-06-22T06:21:45.661Z,79.77
2018-06-22T06:22:45.603Z,79.33
2018-06-22T06:23:45.545Z,78.72
2018-06-22T06:24:45.488Z,77.95
2018-06-22T06:25:45.431Z,79.38
2018-06-22T06:26:45.373Z,79.04
2018-06-22T06:27:45.316Z,79.04
2018-06-22T06:28:45.257Z,78.37
2018-06-22T06:29:45.207Z,77.61
2018-06-22T06:30:45.142Z,77.03
2018-06-22T06:31:45.086Z,77.28
2018-06-22T06:32:45.030Z,77.09
2018-06-22T06:33:44.971Z,77.47
2018-06-22T06:34:44.914Z,78.33
2018-06-22T06:35:44.855Z,77.89
2018-06-22T06:36:44.800Z,77.61
2018-06-22T06:37:44.742Z,77.70
2018-06-22T06:38:44.683Z,77.42
2018-06-22T06:39:44.627Z,77.51
2018-06-22T06:40:44.573Z,75.89
2018-06-22T06:41:44.569Z,76.65
2018-06-22T06:42:44.458Z,77.61
2018-06-22T06:43:44.397Z,77.42
2018-06-22T06:44:44.343Z,78.94
2018-06-22T06:45:44.283Z,78.85
2018-06-22T06:46:44.227Z,76.46
2018-06-22T06:47:44.169Z,76.46
2018-06-22T06:48:44.113Z,76.65
2018-06-22T06:49:44.056Z,76.18
2018-06-22T06:50:43.997Z,75.98
2018-06-22T06:51:43.940Z,75.79
2018-06-22T06:52:43.886Z,76.56
2018-06-22T06:53:43.831Z,76.65
2018-06-22T06:54:43.769Z,75.32
2018-06-22T06:55:43.712Z,75.22
2018-06-22T06:56:43.683Z,75.89
2018-06-22T06:57:43.600Z,75.70
2018-06-22T06:58:43.541Z,75.32
2018-06-22T06:59:43.489Z,74.74
2018-06-22T07:00:43.429Z,74.11
2018-06-22T07:01:43.372Z,73.73
2018-06-22T07:02:43.313Z,74.49
2018-06-22T07:03:43.257Z,73.07
2018-06-22T07:04:43.200Z,72.49
2018-06-22T07:05:43.145Z,72.68
2018-06-22T07:06:43.087Z,73.25
2018-06-22T07:07:43.029Z,72.49
2018-06-22T07:08:42.975Z,71.95
2018-06-22T07:09:42.914Z,71.47
2018-06-22T07:10:42.858Z,72.62
2018-06-22T07:11:42.801Z,71.38
2018-06-22T07:12:42.761Z,70.04
2018-06-22T07:13:42.687Z,70.33
2018-06-22T07:14:42.631Z,71.09
2018-06-22T07:15:42.574Z,70.81
2018-06-22T07:16:42.518Z,70.61
2018-06-22T07:17:42.464Z,70.42
2018-06-22T07:18:42.405Z,70.61
2018-06-22T07:19:42.349Z,70.42
2018-06-22T07:20:42.292Z,70.42
2018-06-22T07:21:42.236Z,70.33
2018-06-22T07:22:42.178Z,70.23
2018-06-22T07:23:42.124Z,70.23
2018-06-22T07:24:42.065Z,70.33
2018-06-22T07:25:42.013Z,70.04
2018-06-22T07:26:41.952Z,70.42
2018-06-22T07:27:41.895Z,70.23
2018-06-22T07:28:41.841Z,70.14
2018-06-22T07:29:41.782Z,70.23
2018-06-22T07:30:41.755Z,69.18
2018-06-22T07:31:41.673Z,69.56
2018-06-22T07:32:41.614Z,68.55
2018-06-22T07:33:41.558Z,67.94
2018-06-22T07:34:41.499Z,68.61
2018-06-22T07:35:41.444Z,68.70
2018-06-22T07:36:41.395Z,68.99
2018-06-22T07:37:41.332Z,68.90
2018-06-22T07:38:41.274Z,69.09
2018-06-22T07:39:41.221Z,69.18
2018-06-22T07:40:41.162Z,69.18
2018-06-22T07:41:41.106Z,69.66
2018-06-22T07:42:41.049Z,69.47
2018-06-22T07:43:40.995Z,68.61
2018-06-22T07:44:41.019Z,69.18
2018-06-22T07:45:40.882Z,70.33
2018-06-22T07:46:40.826Z,70.52
2018-06-22T07:47:40.768Z,70.33
2018-06-22T07:48:40.714Z,69.47
2018-06-22T07:49:40.657Z,69.18
2018-06-22T07:50:40.603Z,70.23
2018-06-22T07:51:40.545Z,70.61
2018-06-22T07:52:40.487Z,69.76
2018-06-22T07:53:40.432Z,69.85
2018-06-22T07:54:40.374Z,69.18
2018-06-22T07:55:40.320Z,70.17
2018-06-22T07:56:40.263Z,69.12
2018-06-22T07:57:40.210Z,69.54
2018-06-22T07:58:40.150Z,68.39
2018-06-22T07:59:40.093Z,66.57
2018-06-22T08:00:40.040Z,67.66
2018-06-22T08:01:39.984Z,66.00
2018-06-22T08:02:39.926Z,66.22
2018-06-22T08:03:39.873Z,66.47
2018-06-22T08:04:39.816Z,66.67
2018-06-22T08:05:39.758Z,66.57
2018-06-22T08:06:39.703Z,66.76
2018-06-22T08:07:39.647Z,65.33
2018-06-22T08:08:39.591Z,66.00
2018-06-22T08:09:39.536Z,65.81
2018-06-22T08:10:39.481Z,65.74
2018-06-22T08:11:39.424Z,65.71
2018-06-22T08:12:39.371Z,67.66
2018-06-22T08:13:39.316Z,66.80
2018-06-22T08:14:39.256Z,66.67
2018-06-22T08:15:39.201Z,67.63
2018-06-22T08:16:39.146Z,67.43
2018-06-22T08:17:39.127Z,66.92
2018-06-22T08:18:39.035Z,67.21
2018-06-22T08:19:38.981Z,68.84
2018-06-22T08:20:38.924Z,68.26
2018-06-22T08:21:38.873Z,67.69
2018-06-22T08:22:38.814Z,67.59
2018-06-22T08:23:38.813Z,66.25
2018-06-22T08:24:38.703Z,67.49
2018-06-22T08:25:38.781Z,67.82
2018-06-22T08:26:38.590Z,66.38
2018-06-22T08:27:38.535Z,65.52
2018-06-22T08:28:38.486Z,65.74
2018-06-22T08:29:38.422Z,65.14
2018-06-22T08:30:38.366Z,64.31
2018-06-22T08:31:38.312Z,65.26
2018-06-22T08:32:38.258Z,64.02
2018-06-22T08:33:38.201Z,63.16
2018-06-22T08:34:38.144Z,62.68
2018-06-22T08:35:38.089Z,62.97
2018-06-22T08:36:38.034Z,62.52
2018-06-22T08:37:37.978Z,63.10
2018-06-22T08:38:37.925Z,61.85
2018-06-22T08:39:37.871Z,61.47
2018-06-22T08:40:37.812Z,61.31
2018-06-22T08:41:37.817Z,60.93
2018-06-22T08:42:37.701Z,60.83
2018-06-22T08:43:37.646Z,61.43
2018-06-22T08:44:37.592Z,59.87
2018-06-22T08:45:37.542Z,60.25
2018-06-22T08:46:37.481Z,60.25
2018-06-22T08:47:37.429Z,60.41
2018-06-22T08:48:37.374Z,58.12
2018-06-22T08:49:37.319Z,58.76
2018-06-22T08:50:37.262Z,59.62
2018-06-22T08:51:37.208Z,59.45
2018-06-22T08:52:37.154Z,59.45
2018-06-22T08:53:37.102Z,60.51
2018-06-22T08:54:37.044Z,60.80
2018-06-22T08:55:37.026Z,61.21
2018-06-22T08:56:36.936Z,61.60
2018-06-22T08:57:36.881Z,61.31
2018-06-22T08:58:36.827Z,60.73
2018-06-22T08:59:36.770Z,60.25
2018-06-22T09:00:36.717Z,61.08
2018-06-22T09:01:36.662Z,60.51
2018-06-22T09:02:36.606Z,60.61
2018-06-22T09:03:36.552Z,60.77
2018-06-22T09:04:36.498Z,60.58
2018-06-22T09:05:36.443Z,62.01
2018-06-22T09:06:36.387Z,61.98
2018-06-22T09:07:36.333Z,63.45
2018-06-22T09:08:36.282Z,61.82
2018-06-22T09:09:36.228Z,61.18
2018-06-22T09:10:36.171Z,61.37
2018-06-22T09:11:36.115Z,59.75
2018-06-22T09:12:36.096Z,60.03
2018-06-22T09:13:36.006Z,61.28
2018-06-22T09:14:36.060Z,62.52
2018-06-22T09:15:35.899Z,61.18
2018-06-22T09:16:35.843Z,62.11
2018-06-22T09:17:35.790Z,62.11
2018-06-22T09:18:35.732Z,62.01
2018-06-22T09:19:35.725Z,61.82
2018-06-22T09:20:35.625Z,61.63
2018-06-22T09:21:35.573Z,62.01
2018-06-22T09:22:35.514Z,63.45
2018-06-22T09:23:35.471Z,62.68
2018-06-22T09:24:35.402Z,63.26
2018-06-22T09:25:35.352Z,62.59
2018-06-22T09:26:35.293Z,62.68
2018-06-22T09:27:35.238Z,63.26
2018-06-22T09:28:35.184Z,62.97
2018-06-22T09:29:35.129Z,62.81
2018-06-22T09:30:35.072Z,63.48
2018-06-22T09:31:35.023Z,62.33
2018-06-22T09:32:34.963Z,64.34
2018-06-22T09:33:34.907Z,62.71
2018-06-22T09:34:34.852Z,62.52
2018-06-22T09:35:34.798Z,62.30
2018-06-22T09:36:34.744Z,62.40
2018-06-22T09:37:34.691Z,62.87
2018-06-22T09:38:34.635Z,62.14
2018-06-22T09:39:34.580Z,61.76
2018-06-22T09:40:34.525Z,61.91
2018-06-22T09:41:34.473Z,62.30
2018-06-22T09:42:34.446Z,62.30
2018-06-22T09:43:34.362Z,63.00
2018-06-22T09:44:34.306Z,63.48
2018-06-22T09:45:34.250Z,63.29
2018-06-22T09:46:34.197Z,62.62
2018-06-22T09:47:34.143Z,62.74
2018-06-22T09:48:34.095Z,61.98
2018-06-22T09:49:34.032Z,61.88
2018-06-22T09:50:33.977Z,63.45
2018-06-22T09:51:33.922Z,60.76
2018-06-22T09:52:33.871Z,60.47
2018-06-22T09:53:33.814Z,58.75
2018-06-22T09:54:33.758Z,58.56
2018-06-22T09:55:33.706Z,59.13
2018-06-22T09:56:33.652Z,59.23
2018-06-22T09:57:33.601Z,58.56
2018-06-22T09:58:33.573Z,58.59
2018-06-22T09:59:33.490Z,59.16
2018-06-22T10:00:33.438Z,59.77
2018-06-22T10:01:33.382Z,58.14
2018-06-22T10:02:33.326Z,57.34
2018-06-22T10:03:33.271Z,58.39
2018-06-22T10:04:33.219Z,58.46
2018-06-22T10:05:33.165Z,60.38
2018-06-22T10:06:33.112Z,59.33
2018-06-22T10:07:33.058Z,59.04
2018-06-22T10:08:33.004Z,59.13
2018-06-22T10:09:32.953Z,58.56
2018-06-22T10:10:32.895Z,57.89
2018-06-22T10:11:32.991Z,58.34
2018-06-22T10:12:32.787Z,59.04
2018-06-22T10:13:32.754Z,58.65
2018-06-22T10:14:32.680Z,59.33
2018-06-22T10:15:32.625Z,61.05
2018-06-22T10:16:32.573Z,59.39
2018-06-22T10:17:32.517Z,59.20
2018-06-22T10:18:32.463Z,59.39
2018-06-22T10:19:32.421Z,59.94
2018-06-22T10:20:32.355Z,60.25
2018-06-22T10:21:32.301Z,60.06
2018-06-22T10:22:32.245Z,61.02
2018-06-22T10:23:32.192Z,60.64
2018-06-22T10:24:32.139Z,60.06
2018-06-22T10:25:32.084Z,60.73
2018-06-22T10:26:32.030Z,60.44
2018-06-22T10:27:31.977Z,61.21
2018-06-22T10:28:31.922Z,60.83
2018-06-22T10:29:31.866Z,61.02
2018-06-22T10:30:31.813Z,61.31
2018-06-22T10:31:31.760Z,61.50
2018-06-22T10:32:31.704Z,60.83
2018-06-22T10:33:31.651Z,61.79
2018-06-22T10:34:31.595Z,60.16
2018-06-22T10:35:31.543Z,60.83
2018-06-22T10:36:31.486Z,60.83
2018-06-22T10:37:31.432Z,61.31
2018-06-22T10:38:31.377Z,61.50
2018-06-22T10:39:31.323Z,60.86
2018-06-22T10:40:31.272Z,60.73
2018-06-22T10:41:31.217Z,60.86
2018-06-22T10:42:31.161Z,59.71
2018-06-22T10:43:31.109Z,59.06
2018-06-22T10:44:31.054Z,59.36
2018-06-22T10:45:31.001Z,58.59
2018-06-22T10:46:30.945Z,58.49
2018-06-22T10:47:30.890Z,59.90
2018-06-22T10:48:30.839Z,58.94
2018-06-22T10:49:30.794Z,58.08
2018-06-22T10:50:30.729Z,59.04
2018-06-22T10:51:30.742Z,58.84
2018-06-22T10:52:30.639Z,59.16
2018-06-22T10:53:30.568Z,59.52
2018-06-22T10:54:30.513Z,59.04
2018-06-22T10:55:30.462Z,58.94
2018-06-22T10:56:30.406Z,59.23
2018-06-22T10:57:30.356Z,59.33
2018-06-22T10:58:30.297Z,59.33
2018-06-22T10:59:30.244Z,59.52
2018-06-22T11:00:30.193Z,59.04
2018-06-22T11:01:30.141Z,59.90
2018-06-22T11:02:30.084Z,60.38
2018-06-22T11:03:30.029Z,59.42
2018-06-22T11:04:29.976Z,59.33
2018-06-22T11:05:29.922Z,59.52
2018-06-22T11:06:29.867Z,60.47
2018-06-22T11:07:29.814Z,60.57
2018-06-22T11:08:29.760Z,60.67
2018-06-22T11:09:29.708Z,61.43
2018-06-22T11:10:29.653Z,59.80
2018-06-22T11:11:29.597Z,61.05
2018-06-22T11:12:29.544Z,60.28
2018-06-22T11:13:29.530Z,60.64
2018-06-22T11:14:29.436Z,60.67
2018-06-22T11:15:29.384Z,60.57
2018-06-22T11:16:29.336Z,60.25
2018-06-22T11:17:29.276Z,60.16
2018-06-22T11:18:29.220Z,60.35
2018-06-22T11:19:29.167Z,61.88
2018-06-22T11:20:29.113Z,60.57
2018-06-22T11:21:29.061Z,60.28
2018-06-22T11:22:29.003Z,60.35
2018-06-22T11:23:28.950Z,60.83
2018-06-22T11:24:28.941Z,60.83
2018-06-22T11:25:28.843Z,62.17
2018-06-22T11:26:28.790Z,62.74
2018-06-22T11:27:28.755Z,62.07
2018-06-22T11:28:28.679Z,61.31
2018-06-22T11:29:28.627Z,60.54
2018-06-22T11:30:28.571Z,61.31
2018-06-22T11:31:28.517Z,61.40
2018-06-22T11:32:28.463Z,61.63
2018-06-22T11:33:28.411Z,61.34
2018-06-22T11:34:28.355Z,61.53
2018-06-22T11:35:28.303Z,60.86
2018-06-22T11:36:28.408Z,60.44
2018-06-22T11:37:28.201Z,60.35
2018-06-22T11:38:28.138Z,60.16
2018-06-22T11:39:28.084Z,60.35
2018-06-22T11:40:28.031Z,60.83
2018-06-22T11:41:27.976Z,60.80
2018-06-22T11:42:27.922Z,61.18
2018-06-22T11:43:27.867Z,61.60
2018-06-22T11:44:27.818Z,61.85
2018-06-22T11:45:27.760Z,61.57
2018-06-22T11:46:27.704Z,61.57
2018-06-22T11:47:27.651Z,62.90
2018-06-22T11:48:27.597Z,63.48
2018-06-22T11:49:27.547Z,62.81
2018-06-22T11:50:27.488Z,63.00
2018-06-22T11:51:27.432Z,63.10
2018-06-22T11:52:27.380Z,62.52
2018-06-22T11:53:27.328Z,63.10
2018-06-22T11:54:27.268Z,62.90
2018-06-22T11:55:27.216Z,63.48
2018-06-22T11:56:27.160Z,64.82
2018-06-22T11:57:27.107Z,63.19
2018-06-22T11:58:27.051Z,63.39
2018-06-22T11:59:27.000Z,63.86
2018-06-22T12:00:26.942Z,66.45
2018-06-22T12:01:26.886Z,64.82
2018-06-22T12:02:26.866Z,64.34
2018-06-22T12:03:26.779Z,63.48
2018-06-22T12:04:26.723Z,64.92
2018-06-22T12:05:26.668Z,63.00
2018-06-22T12:06:26.612Z,64.15
2018-06-22T12:07:26.557Z,63.67
2018-06-22T12:08:26.505Z,64.82
2018-06-22T12:09:26.448Z,65.20
2018-06-22T12:10:26.393Z,67.41
2018-06-22T12:11:26.347Z,66.16
2018-06-22T12:12:26.291Z,65.49
2018-06-22T12:13:26.230Z,65.20
2018-06-22T12:14:26.185Z,64.63
2018-06-22T12:15:26.120Z,63.70
2018-06-22T12:16:26.067Z,63.39
2018-06-22T12:17:26.011Z,63.10
2018-06-22T12:18:25.956Z,63.89
2018-06-22T12:19:26.014Z,64.37
2018-06-22T12:20:25.846Z,63.51
2018-06-22T12:21:25.792Z,63.60
2018-06-22T12:22:25.740Z,62.65
2018-06-22T12:23:25.684Z,63.22
2018-06-22T12:24:25.628Z,62.55
2018-06-22T12:25:25.575Z,63.13
2018-06-22T12:26:25.521Z,62.55
2018-06-22T12:27:25.464Z,61.88
2018-06-22T12:28:25.413Z,62.84
2018-06-22T12:29:25.356Z,62.84
2018-06-22T12:30:25.300Z,62.84
2018-06-22T12:31:25.248Z,63.51
2018-06-22T12:32:25.192Z,63.03
2018-06-22T12:33:25.138Z,62.17
2018-06-22T12:34:25.082Z,62.84
2018-06-22T12:35:25.028Z,63.22
2018-06-22T12:36:24.977Z,63.13
2018-06-22T12:37:24.921Z,61.88
2018-06-22T12:38:24.864Z,62.55
2018-06-22T12:39:24.811Z,63.42
2018-06-22T12:40:24.756Z,62.65
2018-06-22T12:41:24.703Z,61.79
2018-06-22T12:42:24.647Z,61.53
2018-06-22T12:43:24.593Z,61.02
2018-06-22T12:44:24.539Z,61.11
2018-06-22T12:45:24.484Z,61.02
2018-06-22T12:46:24.429Z,61.02
2018-06-22T12:47:24.375Z,61.50
2018-06-22T12:48:24.327Z,61.50
2018-06-22T12:49:24.267Z,62.93
2018-06-22T12:50:24.214Z,62.07
2018-06-22T12:51:24.161Z,61.40